Time;durP1;ratioP1;P1;durP2;ratioP2;P2;SDS_P1;SDS_P2;PMS_P1;PMS_P2;Temp;Humidity;BMP_temperature;BMP_pressure;BME280_temperature;BME280_humidity;BME280_pressure;Samples;Min_cycle;Max_cycle;Signal;HPM_P1;HPM_P2
2021/12/27 00:00:53;;;;;;;5.93;4.43;;;7.00;99.90;;;6.38;100.00;96099.31;4993628;28;20375;-46
2021/12/27 00:03:21;;;;;;;8.05;5.18;;;7.00;99.90;;;6.36;100.00;96090.66;5002415;28;20034;-46
2021/12/27 00:05:47;;;;;;;6.47;4.82;;;7.10;99.90;;;6.40;100.00;96095.69;4995721;28;21357;-46
2021/12/27 00:08:13;;;;;;;5.93;4.57;;;7.10;99.90;;;6.39;100.00;96096.63;5004839;28;20037;-46
2021/12/27 00:10:39;;;;;;;5.80;4.70;;;7.00;99.90;;;6.41;100.00;96096.56;5003856;28;20029;-45
2021/12/27 00:13:07;;;;;;;7.05;4.63;;;7.10;99.90;;;6.44;100.00;96085.94;5002936;28;20033;-47
2021/12/27 00:15:33;;;;;;;6.47;4.60;;;7.10;99.90;;;6.44;100.00;96091.19;5001827;28;20121;-49
2021/12/27 00:17:59;;;;;;;6.80;4.80;;;7.10;99.90;;;6.45;100.00;96085.06;5001137;28;20029;-46
2021/12/27 00:20:25;;;;;;;6.03;4.40;;;7.10;99.90;;;6.43;100.00;96081.66;5008995;28;20037;-48
2021/12/27 00:22:51;;;;;;;8.25;5.40;;;7.10;99.90;;;6.39;100.00;96077.44;5004610;28;20036;-43
2021/12/27 00:25:18;;;;;;;7.30;5.65;;;7.10;99.90;;;6.42;100.00;96083.41;5006581;28;20026;-47
2021/12/27 00:27:45;;;;;;;7.70;5.20;;;7.10;99.90;;;6.41;100.00;96088.72;5004268;28;20037;-43
2021/12/27 00:30:12;;;;;;;7.00;5.45;;;7.00;99.90;;;6.36;100.00;96078.44;5005162;28;20025;-43
2021/12/27 00:32:39;;;;;;;7.60;5.47;;;7.00;99.90;;;6.36;100.00;96081.03;5007869;28;20038;-47
2021/12/27 00:35:07;;;;;;;7.28;5.28;;;7.00;99.90;;;6.33;100.00;96075.94;5006266;28;20029;-46
2021/12/27 00:37:34;;;;;;;7.30;5.35;;;7.00;99.90;;;6.35;100.00;96074.09;5010322;28;20038;-47
2021/12/27 00:40:01;;;;;;;7.35;5.40;;;7.00;99.90;;;6.38;100.00;96076.59;5006574;28;20484;-47
2021/12/27 00:42:26;;;;;;;7.32;5.38;;;7.00;99.90;;;6.41;100.00;96078.25;5004786;28;20046;-47
2021/12/27 00:44:52;;;;;;;6.47;5.05;;;7.00;99.90;;;6.39;100.00;96075.69;5001732;28;20100;-46
2021/12/27 00:47:18;;;;;;;9.05;5.55;;;7.00;99.90;;;6.31;100.00;96072.53;5007329;28;20105;-46
2021/12/27 00:49:44;;;;;;;8.13;5.38;;;7.00;99.90;;;6.33;100.00;96080.31;5006713;28;20017;-47
2021/12/27 00:52:09;;;;;;;8.63;5.30;;;7.00;99.90;;;6.33;100.00;96082.94;5008027;28;20076;-46
2021/12/27 00:54:35;;;;;;;8.35;5.53;;;7.00;99.90;;;6.32;100.00;96087.31;5001795;28;20038;-46
2021/12/27 00:57:01;;;;;;;8.82;5.40;;;7.00;99.90;;;6.30;100.00;96082.16;5006602;28;20045;-46
2021/12/27 00:59:27;;;;;;;9.15;5.65;;;7.00;99.90;;;6.17;100.00;96060.00;5005987;28;20433;-47
2021/12/27 01:01:53;;;;;;;9.18;5.60;;;6.90;99.90;;;6.29;100.00;96080.44;5002696;28;20048;-48
2021/12/27 01:04:21;;;;;;;8.18;5.68;;;6.90;99.90;;;6.31;100.00;96073.38;5004331;28;20034;-46
2021/12/27 01:06:46;;;;;;;10.32;5.72;;;6.90;99.90;;;6.31;100.00;96083.00;5000645;28;20026;-48
2021/12/27 01:09:19;;;;;;;10.63;6.30;;;6.90;99.90;;;6.27;100.00;96084.03;4999755;28;20026;-46
2021/12/27 01:12:09;;;;;;;9.95;6.28;;;6.90;99.90;;;6.25;100.00;96072.78;4999753;28;20050;-47
2021/12/27 01:14:43;;;;;;;7.68;5.70;;;6.90;99.90;;;6.24;100.00;96071.91;4996261;28;20172;-47
2021/12/27 01:17:10;;;;;;;9.90;5.90;;;6.90;99.90;;;6.22;100.00;96078.13;4990015;28;20072;-45
2021/12/27 01:19:36;;;;;;;9.65;6.00;;;6.90;99.90;;;6.20;100.00;96085.22;5000242;28;20971;-48
2021/12/27 01:22:03;;;;;;;7.10;5.60;;;6.80;99.90;;;6.14;100.00;96086.31;4996218;28;20042;-47
2021/12/27 01:24:28;;;;;;;8.73;6.43;;;6.80;99.90;;;6.07;100.00;96087.47;5002792;28;20126;-48
2021/12/27 01:26:54;;;;;;;8.90;6.20;;;6.70;99.90;;;5.97;100.00;96084.34;4996783;28;20075;-45
2021/12/27 01:29:20;;;;;;;9.95;6.35;;;6.60;99.90;;;5.90;100.00;96078.50;5005610;28;20435;-48
2021/12/27 01:31:45;;;;;;;8.60;6.18;;;6.60;99.90;;;5.85;100.00;96079.56;5002680;28;20073;-47
2021/12/27 01:34:11;;;;;;;9.52;6.30;;;6.50;99.90;;;5.82;100.00;96071.84;5001852;28;20121;-46
2021/12/27 01:36:37;;;;;;;8.55;6.07;;;6.50;99.90;;;5.80;100.00;96084.16;5001522;28;20115;-45
2021/12/27 01:39:05;;;;;;;8.15;6.03;;;6.50;99.90;;;5.80;100.00;96082.38;5003996;28;20029;-46
2021/12/27 01:41:31;;;;;;;8.40;6.28;;;6.50;99.90;;;5.80;100.00;96079.75;5002134;28;20130;-47
2021/12/27 01:43:58;;;;;;;11.15;6.55;;;6.50;99.90;;;5.84;100.00;96080.50;5001956;28;20568;-44
2021/12/27 01:46:26;;;;;;;11.55;6.95;;;6.50;99.90;;;5.83;100.00;96084.88;5002781;28;20041;-45
2021/12/27 01:48:56;;;;;;;8.32;6.40;;;6.50;99.90;;;5.78;100.00;96073.75;5001238;28;20029;-45
2021/12/27 01:51:29;;;;;;;9.32;7.15;;;6.50;99.90;;;5.79;100.00;96085.06;5002454;28;20029;-46
2021/12/27 01:53:56;;;;;;;8.98;6.30;;;6.50;99.90;;;5.80;100.00;96085.00;5008020;28;20429;-45
2021/12/27 01:56:23;;;;;;;9.98;6.95;;;6.50;99.90;;;5.80;100.00;96087.63;5004025;28;20569;-44
2021/12/27 01:58:52;;;;;;;10.13;6.70;;;6.40;99.90;;;5.81;100.00;96084.06;5004798;28;20041;-43
2021/12/27 02:01:19;;;;;;;8.65;6.82;;;6.50;99.90;;;5.83;100.00;96090.13;4999216;28;20087;-47
2021/12/27 02:03:46;;;;;;;9.60;6.25;;;6.40;99.90;;;5.83;100.00;96079.66;5002084;28;20101;-40
2021/12/27 02:06:14;;;;;;;9.65;7.03;;;6.50;99.90;;;5.82;100.00;96080.56;5002095;28;20029;-45
2021/12/27 02:08:43;;;;;;;11.25;7.15;;;6.50;99.90;;;5.81;100.00;96072.75;4995888;28;20037;-47
2021/12/27 02:11:13;;;;;;;8.80;6.32;;;6.40;99.90;;;5.76;100.00;96079.94;4994364;28;20033;-42
2021/12/27 02:13:43;;;;;;;9.75;6.28;;;6.40;99.90;;;5.74;100.00;96077.38;5002567;28;20044;-47
2021/12/27 02:16:16;;;;;;;9.40;6.38;;;6.40;99.90;;;5.66;100.00;96072.44;4999746;28;20068;-45
2021/12/27 02:18:44;;;;;;;8.80;5.80;;;6.40;99.90;;;5.53;100.00;96048.53;5000926;28;20036;-42
2021/12/27 02:21:10;;;;;;;8.98;5.80;;;6.30;99.90;;;5.63;100.00;96058.63;4999497;28;20489;-45
2021/12/27 02:23:41;;;;;;;9.13;5.85;;;6.30;99.90;;;5.63;100.00;96058.63;4997500;28;20026;-46
2021/12/27 02:26:07;;;;;;;9.23;6.25;;;6.30;99.90;;;5.62;100.00;96065.63;4996966;28;20029;-48
2021/12/27 02:28:34;;;;;;;6.15;5.18;;;6.30;99.90;;;5.62;100.00;96072.66;5002971;28;20030;-45
2021/12/27 02:30:59;;;;;;;9.10;6.00;;;6.30;99.90;;;5.59;100.00;96059.66;4997664;28;20034;-47
2021/12/27 02:33:26;;;;;;;8.38;5.32;;;6.30;99.90;;;5.58;100.00;96039.66;5002001;28;20189;-45
2021/12/27 02:35:58;;;;;;;8.32;6.18;;;6.30;99.90;;;5.66;100.00;96054.13;5006258;28;20042;-46
2021/12/27 02:38:31;;;;;;;6.82;4.88;;;6.30;99.90;;;5.68;100.00;96046.22;5002355;28;20109;-46
2021/12/27 02:40:58;;;;;;;7.65;5.40;;;6.40;99.90;;;5.70;100.00;96049.63;5000186;28;20037;-43
2021/12/27 02:43:27;;;;;;;6.40;4.57;;;6.30;99.90;;;5.69;100.00;96050.56;5003269;28;20037;-47
2021/12/27 02:46:01;;;;;;;10.32;5.35;;;6.40;99.90;;;5.72;100.00;96048.69;5002763;28;20033;-45
2021/12/27 02:48:32;;;;;;;6.97;4.65;;;6.40;99.90;;;5.73;100.00;96052.97;5004014;28;20030;-46
2021/12/27 02:50:59;;;;;;;6.55;4.97;;;6.40;99.90;;;5.72;100.00;96048.69;5001804;28;20038;-45
2021/12/27 02:53:26;;;;;;;8.38;4.88;;;6.40;99.90;;;5.68;100.00;96047.06;4999962;28;20045;-44
2021/12/27 02:55:55;;;;;;;7.50;4.82;;;6.40;99.90;;;5.59;100.00;96033.53;4998054;28;20033;-46
2021/12/27 02:58:21;;;;;;;6.93;5.00;;;6.30;99.90;;;5.64;100.00;96045.50;5001134;28;20500;-47
2021/12/27 03:00:56;;;;;;;7.03;5.30;;;6.30;99.90;;;5.65;100.00;96042.00;4999740;28;20491;-46
2021/12/27 03:03:22;;;;;;;6.55;4.97;;;6.30;99.90;;;5.67;100.00;96054.97;5000790;28;20443;-48
2021/12/27 03:05:49;;;;;;;8.88;4.53;;;6.30;99.90;;;5.66;100.00;96058.53;5001271;28;20482;-47
2021/12/27 03:08:17;;;;;;;6.47;4.30;;;6.30;99.90;;;5.69;100.00;96040.94;5002979;28;20048;-45
2021/12/27 03:10:46;;;;;;;8.25;4.85;;;6.30;99.90;;;5.71;100.00;96038.28;4993031;28;20038;-45
2021/12/27 03:13:25;;;;;;;6.15;3.95;;;6.40;99.90;;;5.73;100.00;96039.91;4994621;28;20088;-45
2021/12/27 03:16:11;;;;;;;5.50;4.25;;;6.40;99.90;;;5.72;100.00;96037.34;4987138;28;20100;-47
2021/12/27 03:18:40;;;;;;;5.05;4.13;;;6.40;99.90;;;5.80;100.00;96047.53;4990459;28;20060;-47
2021/12/27 03:21:07;;;;;;;6.82;4.35;;;6.50;99.90;;;5.79;100.00;96036.19;4992547;28;20329;-46
2021/12/27 03:23:35;;;;;;;5.60;4.20;;;6.50;99.90;;;5.87;100.00;96036.75;5002156;28;20030;-47
2021/12/27 03:26:01;;;;;;;5.13;3.97;;;6.50;99.90;;;5.86;100.00;96042.03;5001827;28;20399;-45
2021/12/27 03:28:27;;;;;;;6.53;4.20;;;6.60;99.90;;;5.86;100.00;96042.88;5001961;28;20072;-47
2021/12/27 03:30:53;;;;;;;6.00;4.07;;;6.50;99.90;;;5.91;100.00;96035.72;5000522;28;20435;-45
2021/12/27 03:33:22;;;;;;;6.40;4.30;;;6.60;99.90;;;5.92;100.00;96029.56;5002580;28;20462;-48
2021/12/27 03:35:59;;;;;;;5.10;3.95;;;6.60;99.90;;;5.93;100.00;96025.19;5003234;28;20036;-48
2021/12/27 03:38:25;;;;;;;6.47;4.07;;;6.60;99.90;;;5.96;100.00;96034.69;5000495;28;20030;-45
2021/12/27 03:40:50;;;;;;;4.97;3.55;;;6.60;99.90;;;5.93;100.00;96017.31;4996521;28;20042;-45
2021/12/27 03:43:16;;;;;;;3.83;3.42;;;6.60;99.90;;;5.92;100.00;96013.00;5001680;28;20041;-44
2021/12/27 03:45:42;;;;;;;4.80;3.70;;;6.60;99.90;;;5.90;100.00;96020.06;5004720;28;20025;-46
2021/12/27 03:48:10;;;;;;;4.38;3.80;;;6.60;99.90;;;5.94;100.00;96026.91;5007593;28;20084;-48
2021/12/27 03:50:38;;;;;;;5.50;3.65;;;6.60;99.90;;;5.97;100.00;96023.31;5003114;28;20018;-47
2021/12/27 03:53:04;;;;;;;4.65;3.22;;;6.60;99.90;;;5.95;100.00;96010.25;5006301;28;20358;-46
2021/12/27 03:55:30;;;;;;;4.53;3.33;;;6.60;99.90;;;5.97;100.00;96010.25;5008271;28;20026;-46
2021/12/27 03:58:07;;;;;;;5.35;3.47;;;6.60;99.90;;;5.92;100.00;96008.63;5006183;28;20404;-45
2021/12/27 04:00:47;;;;;;;4.38;3.28;;;6.60;99.90;;;5.89;100.00;96006.13;5006202;28;20030;-46
2021/12/27 04:03:16;;;;;;;4.80;3.13;;;6.60;99.90;;;5.84;100.00;96004.63;5003702;28;20025;-45
2021/12/27 04:05:42;;;;;;;3.92;2.85;;;6.50;99.90;;;5.76;100.00;96007.56;5000940;28;20483;-46
2021/12/27 04:08:11;;;;;;;4.07;2.97;;;6.40;99.90;;;5.76;100.00;96002.31;5003457;28;20120;-47
2021/12/27 04:10:40;;;;;;;3.65;2.60;;;6.40;99.90;;;5.74;100.00;96009.34;5007422;28;20057;-46
2021/12/27 04:13:08;;;;;;;4.57;2.67;;;6.40;99.90;;;5.75;100.00;96000.63;5004183;28;20029;-45
2021/12/27 04:15:34;;;;;;;5.03;3.22;;;6.40;99.90;;;5.76;100.00;96002.31;5006407;28;20507;-45
2021/12/27 04:18:01;;;;;;;3.10;2.40;;;6.40;99.90;;;5.74;100.00;96009.34;5004964;28;20041;-43
2021/12/27 04:20:27;;;;;;;5.05;2.65;;;6.40;99.90;;;5.69;100.00;95995.63;5005778;28;20045;-47
2021/12/27 04:22:53;;;;;;;3.10;2.42;;;6.40;99.90;;;5.82;100.00;96015.16;4995516;28;20076;-45
2021/12/27 04:25:21;;;;;;;4.40;2.25;;;6.50;99.90;;;5.87;100.00;96012.34;4991130;28;20041;-46
2021/12/27 04:27:48;;;;;;;4.53;2.42;;;6.50;99.90;;;5.91;100.00;96006.91;4992062;28;20373;-46
2021/12/27 04:30:16;;;;;;;2.95;1.88;;;6.50;99.90;;;5.90;100.00;96007.84;4993659;28;20088;-46
2021/12/27 04:32:42;;;;;;;4.10;2.00;;;6.60;99.90;;;5.90;100.00;96007.84;4993055;28;20038;-47
2021/12/27 04:35:10;;;;;;;2.08;1.70;;;6.60;99.90;;;5.90;100.00;96015.69;4988836;28;20061;-47
2021/12/27 04:37:35;;;;;;;3.00;1.80;;;6.60;99.90;;;5.87;100.00;96010.59;4991087;28;20036;-46
2021/12/27 04:40:05;;;;;;;1.95;1.50;;;6.60;99.90;;;5.89;100.00;96016.59;4989015;28;20030;-47
2021/12/27 04:42:31;;;;;;;1.90;1.60;;;6.60;99.90;;;5.93;100.00;96015.56;4989854;28;20037;-49
2021/12/27 04:44:59;;;;;;;2.05;1.40;;;6.60;99.90;;;5.98;100.00;96014.56;4994219;28;20061;-48
2021/12/27 04:47:25;;;;;;;2.10;1.60;;;6.60;99.90;;;5.97;100.00;96018.09;4991649;28;20069;-47
2021/12/27 04:49:51;;;;;;;1.80;1.30;;;6.60;99.90;;;6.01;100.00;96012.69;4993296;28;21124;-45
2021/12/27 04:52:17;;;;;;;2.88;1.40;;;6.70;99.90;;;6.02;100.00;96005.69;4988274;28;20030;-47
2021/12/27 04:54:42;;;;;;;1.67;1.35;;;6.70;99.90;;;6.04;100.00;96012.53;4990474;28;20515;-46
2021/12/27 04:57:08;;;;;;;2.67;1.60;;;6.70;99.90;;;6.06;100.00;96004.63;4991709;28;21304;-46
2021/12/27 04:59:34;;;;;;;2.35;1.40;;;6.70;99.90;;;6.07;100.00;95998.50;4999256;28;20094;-48
2021/12/27 05:02:01;;;;;;;2.63;1.70;;;6.70;99.90;;;6.07;100.00;96006.34;4989527;28;20034;-46
2021/12/27 05:04:26;;;;;;;2.13;1.50;;;6.70;99.90;;;6.05;100.00;95992.47;4991306;28;20029;-47
2021/12/27 05:06:52;;;;;;;2.70;1.50;;;6.70;99.90;;;6.03;100.00;95994.28;4988199;28;20080;-48
2021/12/27 05:09:18;;;;;;;1.60;1.38;;;6.70;99.90;;;6.02;100.00;95996.03;4991083;28;20021;-48
2021/12/27 05:11:43;;;;;;;2.67;1.75;;;6.70;99.90;;;6.00;100.00;96005.72;4989139;28;20511;-47
2021/12/27 05:14:09;;;;;;;3.63;1.60;;;6.70;99.90;;;6.01;100.00;96001.34;4994628;28;20044;-47
2021/12/27 05:16:35;;;;;;;1.65;1.20;;;6.70;99.90;;;6.05;100.00;95992.47;4993884;28;20033;-47
2021/12/27 05:19:01;;;;;;;1.55;1.15;;;6.70;99.90;;;6.08;100.00;95989.69;4992899;28;20119;-46
2021/12/27 05:21:26;;;;;;;2.65;1.40;;;6.70;99.90;;;6.07;100.00;95988.88;4990918;28;20062;-47
2021/12/27 05:23:52;;;;;;;3.85;1.30;;;6.70;99.90;;;6.08;100.00;95987.97;4990839;28;20455;-46
2021/12/27 05:26:18;;;;;;;2.95;1.50;;;6.80;99.90;;;6.05;100.00;95979.38;4992452;28;20062;-45
2021/12/27 05:28:44;;;;;;;3.17;1.67;;;6.80;99.90;;;6.10;100.00;95980.00;4990946;28;20443;-45
2021/12/27 05:31:12;;;;;;;2.47;1.33;;;6.80;99.90;;;6.09;100.00;95975.72;4991451;28;20093;-47
2021/12/27 05:33:38;;;;;;;3.22;1.77;;;6.70;99.90;;;6.10;100.00;95980.00;4987921;28;22323;-47
2021/12/27 05:36:04;;;;;;;3.35;1.73;;;6.80;99.90;;;6.08;100.00;95982.72;4990646;28;20042;-43
2021/12/27 05:38:30;;;;;;;3.67;1.77;;;6.80;99.90;;;6.09;100.00;95983.56;4990167;28;20040;-48
2021/12/27 05:40:56;;;;;;;2.33;1.63;;;6.70;99.90;;;6.05;100.00;95982.84;4988543;28;20070;-44
2021/12/27 05:43:23;;;;;;;1.90;1.70;;;6.70;99.90;;;6.05;100.00;95984.63;4990972;28;20072;-47
2021/12/27 05:45:50;;;;;;;3.67;2.15;;;6.70;99.90;;;6.04;100.00;95993.38;4989508;28;20459;-47
2021/12/27 05:48:16;;;;;;;3.28;1.92;;;6.70;99.90;;;6.03;100.00;95989.91;4988659;28;20038;-45
2021/12/27 05:50:43;;;;;;;2.90;1.70;;;6.70;99.90;;;6.01;100.00;95976.03;4987771;28;20034;-44
2021/12/27 05:53:09;;;;;;;2.63;1.90;;;6.70;99.90;;;6.05;100.00;95979.38;4999685;28;20064;-46
2021/12/27 05:55:35;;;;;;;3.28;1.67;;;6.70;99.90;;;6.05;100.00;95971.53;4989417;28;20432;-47
2021/12/27 05:58:02;;;;;;;3.67;1.90;;;6.70;99.90;;;6.04;100.00;95975.91;4990049;28;20129;-43
2021/12/27 06:00:30;;;;;;;4.10;1.90;;;6.70;99.90;;;6.04;100.00;95972.44;4993449;28;20496;-45
2021/12/27 06:02:56;;;;;;;2.40;1.70;;;6.70;99.90;;;6.04;100.00;95972.44;4988889;28;20037;-42
2021/12/27 06:05:24;;;;;;;3.28;2.50;;;6.70;99.90;;;6.01;100.00;95969.94;4990598;28;20053;-44
2021/12/27 06:07:51;;;;;;;2.80;1.95;;;6.70;99.90;;;6.00;100.00;95971.72;4994004;28;20129;-47
2021/12/27 06:10:17;;;;;;;2.53;2.10;;;6.70;99.90;;;5.97;100.00;95963.13;4991824;28;20514;-51
2021/12/27 06:12:44;;;;;;;2.40;1.90;;;6.60;99.90;;;5.92;100.00;95956.31;4989537;28;20075;-45
2021/12/27 06:15:11;;;;;;;2.95;1.95;;;6.60;99.90;;;5.88;100.00;95957.31;4991513;28;20030;-46
2021/12/27 06:17:37;;;;;;;3.05;2.30;;;6.50;99.90;;;5.77;100.00;95959.53;4988267;28;20492;-44
2021/12/27 06:20:08;;;;;;;3.55;2.15;;;6.50;99.90;;;5.74;100.00;95959.66;5008700;28;20026;-45
2021/12/27 06:22:36;;;;;;;3.72;2.20;;;6.40;99.90;;;5.68;100.00;95962.53;4988513;28;20505;-46
2021/12/27 06:25:03;;;;;;;3.78;2.50;;;6.30;99.90;;;5.62;100.00;95968.03;4988972;28;20030;-45
2021/12/27 06:27:31;;;;;;;2.63;2.20;;;6.30;99.90;;;5.49;100.00;95958.06;4987742;28;20120;-47
2021/12/27 06:30:00;;;;;;;3.08;2.30;;;6.20;99.90;;;5.37;100.00;95962.91;4989136;28;20049;-49
2021/12/27 06:32:26;;;;;;;3.03;2.25;;;6.00;99.90;;;5.22;100.00;95961.75;4989287;28;20026;-47
2021/12/27 06:34:52;;;;;;;3.20;2.28;;;5.90;99.90;;;5.09;100.00;95959.59;4988222;28;20028;-46
2021/12/27 06:37:19;;;;;;;3.35;2.30;;;5.80;99.90;;;5.00;100.00;95965.16;4988694;28;20027;-47
2021/12/27 06:39:45;;;;;;;3.38;2.20;;;5.70;99.90;;;4.85;100.00;95960.53;4990259;28;20515;-46
2021/12/27 06:42:11;;;;;;;2.90;2.22;;;5.60;99.90;;;4.77;100.00;95961.69;4990743;28;20430;-40
2021/12/27 06:44:37;;;;;;;4.28;2.30;;;5.50;99.90;;;4.68;100.00;95964.59;4988280;28;20061;-47
2021/12/27 06:47:04;;;;;;;3.80;2.28;;;5.40;99.90;;;4.59;100.00;95949.28;4989575;28;20026;-46
2021/12/27 06:49:33;;;;;;;2.72;2.10;;;5.30;99.90;;;4.47;100.00;95947.09;4990544;28;20029;-46
2021/12/27 06:51:59;;;;;;;3.42;2.28;;;5.20;99.90;;;4.38;100.00;95953.53;4996749;28;20053;-47
2021/12/27 06:54:25;;;;;;;3.95;2.50;;;5.10;99.90;;;4.30;100.00;95958.16;4997712;28;20496;-45
2021/12/27 06:56:51;;;;;;;2.97;2.60;;;5.00;99.90;;;4.23;100.00;95962.72;4999816;28;20041;-48
2021/12/27 06:59:17;;;;;;;3.03;2.25;;;4.90;99.90;;;4.15;100.00;95960.41;4993937;28;20399;-45
2021/12/27 07:01:43;;;;;;;2.95;2.55;;;4.90;99.90;;;4.07;100.00;95951.97;4992948;28;20041;-45
2021/12/27 07:04:09;;;;;;;3.78;2.30;;;4.80;99.90;;;4.04;100.00;95957.31;4996369;28;20112;-46
2021/12/27 07:06:34;;;;;;;3.78;2.63;;;4.80;99.90;;;3.99;100.00;95957.47;4998413;28;20247;-46
2021/12/27 07:09:00;;;;;;;3.55;2.72;;;4.70;99.90;;;3.90;100.00;95949.94;5000801;28;20058;-46
2021/12/27 07:11:28;;;;;;;4.32;2.65;;;4.70;99.90;;;3.91;100.00;95959.50;4995430;28;20037;-46
2021/12/27 07:16:21;;;;;;;3.70;2.45;;;4.60;99.90;;;3.92;100.00;95957.72;5011656;28;20527;-42
2021/12/27 07:18:47;;;;;;;4.10;2.78;;;4.60;99.90;;;3.91;100.00;95963.81;5016581;28;20040;-43
2021/12/27 07:21:13;;;;;;;3.97;3.00;;;4.60;99.90;;;3.94;100.00;95954.16;5011454;28;20124;-43
2021/12/27 07:23:38;;;;;;;3.28;2.72;;;4.70;99.90;;;4.00;100.00;95961.78;5021065;28;20048;-41
2021/12/27 07:26:04;;;;;;;3.67;2.70;;;4.70;99.90;;;4.04;100.00;95964.25;4999700;28;20037;-46
2021/12/27 07:28:30;;;;;;;3.72;2.70;;;4.70;99.90;;;4.03;100.00;95950.38;5002750;28;20207;-43
2021/12/27 07:30:55;;;;;;;5.78;2.83;;;4.80;99.90;;;4.11;100.00;95961.41;4997404;28;20057;-42
2021/12/27 07:33:21;;;;;;;5.32;2.83;;;4.80;99.90;;;4.09;100.00;95949.31;5001873;28;20091;-41
2021/12/27 07:35:47;;;;;;;4.45;3.00;;;4.90;99.90;;;4.17;100.00;95961.19;5001270;28;20077;-42
2021/12/27 07:38:14;;;;;;;4.13;3.33;;;4.90;99.90;;;4.23;100.00;95961.88;5003055;28;20472;-42
2021/12/27 07:40:40;;;;;;;4.93;3.70;;;5.00;99.90;;;4.23;100.00;95956.66;4999888;28;20034;-41
2021/12/27 07:43:06;;;;;;;5.82;3.47;;;5.00;99.90;;;4.36;100.00;95961.41;5003378;28;20048;-41
2021/12/27 07:45:32;;;;;;;5.45;3.60;;;5.10;99.90;;;4.48;100.00;95954.88;4993629;28;20026;-41
2021/12/27 07:47:58;;;;;;;5.90;3.47;;;5.20;99.90;;;4.61;100.00;95944.84;5001126;28;20404;-40
2021/12/27 07:50:25;;;;;;;4.53;3.17;;;5.30;99.90;;;4.72;100.00;95947.94;4998019;28;20074;-42
2021/12/27 07:52:51;;;;;;;5.50;3.67;;;5.40;99.90;;;4.78;100.00;95944.25;4996827;28;20033;-43
2021/12/27 07:55:18;;;;;;;7.80;3.55;;;5.50;99.90;;;4.80;100.00;95944.19;4977642;28;20030;-43
2021/12/27 07:57:44;;;;;;;6.35;3.47;;;5.50;99.90;;;4.84;100.00;95943.16;5001512;28;20762;-43
2021/12/27 08:00:10;;;;;;;5.78;3.50;;;5.50;99.90;;;4.73;100.00;95927.88;4998793;28;20034;-42
2021/12/27 08:02:37;;;;;;;3.90;3.00;;;5.50;99.90;;;4.78;100.00;95945.06;4998447;28;20559;-42
2021/12/27 08:05:05;;;;;;;4.97;3.25;;;5.50;99.90;;;4.74;100.00;95940.03;4994491;28;20549;-42
2021/12/27 08:07:30;;;;;;;3.92;3.03;;;5.50;99.90;;;4.73;100.00;95941.78;4998156;28;20073;-45
2021/12/27 08:09:56;;;;;;;4.25;3.08;;;5.50;99.90;;;4.70;100.00;95936.69;4999477;28;20037;-41
2021/12/27 08:12:22;;;;;;;4.47;3.08;;;5.50;99.90;;;4.66;100.00;95935.09;4998671;28;20029;-46
2021/12/27 08:14:47;;;;;;;4.70;3.42;;;5.50;99.90;;;4.74;100.00;95940.88;4997648;28;20120;-41
2021/12/27 08:17:13;;;;;;;4.53;3.08;;;5.50;99.90;;;4.77;100.00;95951.22;4999896;28;20034;-42
2021/12/27 08:19:39;;;;;;;3.97;3.03;;;5.50;99.90;;;4.79;100.00;95953.75;4998456;28;20041;-39
2021/12/27 08:22:05;;;;;;;8.00;3.38;;;5.50;99.90;;;4.81;100.00;95949.34;4998851;28;20118;-42
2021/12/27 08:24:30;;;;;;;4.93;3.10;;;5.50;99.90;;;4.85;100.00;95945.72;4998889;28;20399;-48
2021/12/27 08:26:56;;;;;;;4.80;3.15;;;5.50;99.90;;;4.88;100.00;95944.72;5001664;28;20049;-48
2021/12/27 08:29:22;;;;;;;4.47;3.00;;;5.60;99.90;;;4.91;100.00;95937.63;5001959;28;20030;-49
2021/12/27 08:31:48;;;;;;;4.90;3.05;;;5.60;99.90;;;4.93;100.00;95943.66;5002458;28;20064;-49
2021/12/27 08:34:13;;;;;;;4.20;3.15;;;5.60;99.90;;;4.91;100.00;95940.25;4999799;28;20030;-48
2021/12/27 08:36:39;;;;;;;5.80;3.83;;;5.70;99.90;;;5.05;100.00;95944.09;5003892;28;20116;-40
2021/12/27 08:39:05;;;;;;;6.15;3.63;;;5.80;99.90;;;5.12;100.00;95949.03;5004574;28;20042;-41
2021/12/27 08:41:31;;;;;;;4.75;3.40;;;5.90;99.90;;;5.35;100.00;95942.91;5002518;28;20081;-40
2021/12/27 08:44:01;;;;;;;4.35;3.70;;;6.00;99.90;;;5.57;100.00;95938.59;5004747;28;20116;-40
2021/12/27 08:46:27;;;;;;;5.20;3.95;;;6.20;99.90;;;5.74;100.00;95946.56;5008874;28;20076;-40
2021/12/27 08:48:52;;;;;;;5.28;3.60;;;6.40;99.90;;;5.98;100.00;95944.75;5006608;28;20038;-39
2021/12/27 08:51:18;;;;;;;4.00;3.35;;;6.60;99.90;;;6.18;100.00;95950.94;4997386;28;20127;-42
2021/12/27 08:53:44;;;;;;;5.30;3.75;;;6.80;99.90;;;6.34;100.00;95943.25;5003794;28;20031;-42
2021/12/27 08:56:10;;;;;;;5.53;3.55;;;7.00;99.90;;;6.48;100.00;95935.66;5003929;28;20385;-40
2021/12/27 08:58:35;;;;;;;5.55;4.00;;;7.20;99.90;;;6.58;100.00;95930.84;5002141;28;20038;-43
2021/12/27 09:01:01;;;;;;;5.63;3.90;;;7.30;99.90;;;6.78;100.00;95936.03;5001593;28;20038;-42
2021/12/27 09:03:27;;;;;;;5.72;3.88;;;7.50;99.90;;;6.82;100.00;95926.25;4997784;28;20439;-41
2021/12/27 09:05:52;;;;;;;6.53;4.13;;;7.50;99.90;;;6.93;100.00;95933.63;5004042;28;20534;-39
2021/12/27 09:08:18;;;;;;;5.75;3.95;;;7.60;99.90;;;6.91;100.00;95932.84;4985471;28;20104;-40
2021/12/27 09:10:44;;;;;;;5.65;3.60;;;7.60;99.90;;;6.81;100.00;95921.97;5004120;28;20034;-40
2021/12/27 09:13:10;;;;;;;5.90;3.75;;;7.60;99.90;;;6.65;100.00;95929.66;5002061;28;20327;-44
2021/12/27 09:15:36;;;;;;;5.18;3.85;;;7.40;99.90;;;6.55;100.00;95931.84;5006569;28;20033;-41
2021/12/27 09:18:01;;;;;;;8.38;3.50;;;7.30;99.90;;;6.45;100.00;95928.75;4999766;28;20480;-43
2021/12/27 09:20:28;;;;;;;7.22;3.47;;;7.30;99.90;;;6.46;100.00;95934.84;5005203;28;20590;-40
2021/12/27 09:22:54;;;;;;;5.10;3.53;;;7.20;99.90;;;6.44;100.00;95934.06;5004221;28;20037;-41
2021/12/27 09:25:21;;;;;;;4.97;3.63;;;7.20;99.90;;;6.46;100.00;95937.47;5003885;28;20388;-41
2021/12/27 09:27:47;;;;;;;4.85;3.75;;;7.10;99.90;;;6.49;100.00;95939.97;5001950;28;20037;-39
2021/12/27 09:30:12;;;;;;;5.35;3.85;;;7.20;99.90;;;6.39;100.00;95931.66;5005558;28;20034;-39
2021/12/27 09:32:38;;;;;;;4.95;3.53;;;7.10;99.90;;;6.39;100.00;95938.66;5002887;28;20041;-42
2021/12/27 09:35:06;;;;;;;5.75;3.60;;;7.20;99.90;;;6.44;100.00;95945.41;5002185;28;20531;-41
2021/12/27 09:37:31;;;;;;;6.28;3.85;;;7.10;99.90;;;6.47;100.00;95947.88;5000818;28;20030;-45
2021/12/27 09:39:58;;;;;;;4.93;3.60;;;7.20;99.90;;;6.49;100.00;95937.34;5006738;28;20535;-42
2021/12/27 09:42:26;;;;;;;5.45;3.90;;;7.20;99.90;;;6.49;100.00;95934.72;5003195;28;20506;-41
2021/12/27 09:44:54;;;;;;;4.93;3.30;;;7.20;99.90;;;6.48;100.00;95927.81;5003973;28;20109;-39
2021/12/27 09:47:20;;;;;;;7.10;3.75;;;7.20;99.90;;;6.43;100.00;95911.44;5003887;28;20026;-40
2021/12/27 09:49:47;;;;;;;5.35;4.15;;;7.20;99.90;;;6.56;100.00;95917.81;5005939;28;20120;-44
2021/12/27 09:52:14;;;;;;;5.75;4.18;;;7.30;99.90;;;6.49;100.00;95922.47;5000623;28;20088;-41
2021/12/27 09:54:40;;;;;;;6.20;3.95;;;7.20;99.90;;;6.55;100.00;95920.50;5003726;28;20092;-40
2021/12/27 09:57:07;;;;;;;6.93;3.95;;;7.30;99.90;;;6.62;100.00;95928.03;5000740;28;20029;-40
2021/12/27 09:59:32;;;;;;;6.40;3.90;;;7.30;99.90;;;6.66;100.00;95918.28;5001574;28;20034;-41
2021/12/27 10:01:58;;;;;;;5.10;3.60;;;7.30;99.90;;;6.66;100.00;95908.63;5002786;28;20104;-43
2021/12/27 10:04:24;;;;;;;5.30;3.28;;;7.40;99.90;;;6.62;100.00;95912.31;4997934;28;20022;-43
2021/12/27 10:06:51;;;;;;;7.13;3.72;;;7.40;99.90;;;6.58;100.00;95905.50;4985256;28;20022;-43
2021/12/27 10:09:17;;;;;;;5.10;3.17;;;7.30;99.90;;;6.60;100.00;95900.19;5004215;28;20068;-41
2021/12/27 10:11:44;;;;;;;5.40;3.50;;;7.30;99.90;;;6.60;100.00;95890.56;5003896;28;20072;-39
2021/12/27 10:14:15;;;;;;;5.38;3.33;;;7.30;99.90;;;6.56;100.00;95898.63;5004979;28;20026;-41
2021/12/27 10:17:05;;;;;;;6.00;3.38;;;7.20;99.90;;;6.47;100.00;95886.81;5000481;28;20033;-43
2021/12/27 10:19:33;;;;;;;5.43;3.08;;;7.20;99.90;;;6.49;100.00;95891.03;5002478;28;20434;-42
2021/12/27 10:21:59;;;;;;;5.88;2.78;;;7.20;99.90;;;6.47;100.00;95886.81;4995697;28;20603;-40
2021/12/27 10:24:28;;;;;;;3.35;2.55;;;7.20;99.90;;;6.49;100.00;95892.81;5003985;28;20030;-44
2021/12/27 10:26:57;;;;;;;4.63;2.70;;;7.20;99.90;;;6.51;100.00;95890.97;5001598;28;20044;-48